x

South Georgian Bay (45143) Wave Buoy

8:00am - Sun 23rd Jul 2017 All times are CDT. -5 hours from GMT.

  • Sig Wave height 2.0ft
  • Peak Period 4s
  • Wind
    13mph, 16mph gusts
  • Sea Temp 66°f
  • Air Temp 67°f
  • Sea Pressure 1009.2mb
  • South Georgian Bay
  • South Georgian Bay

More Historic Weather Station data

Upgrade to MSW Pro to gain access to the past 30 days of data for over 8000 Wavebouys and Weather Stations around the globe.

Join Pro

Comparision Forecast

View Surf forecast
   
Sun 07/23 8:00am 2ft 4s 13 16 mph 1009.2mb 66f 67f
7:00am 2ft 4s 16 20 mph 1008.7mb 66f 67f
6:00am 2ft 4s 16 18 mph 1008.8mb 67f 67f
5:00am 2ft 3s 16 18 mph 1008.7mb 67f 68f
4:00am 1.6ft 3s 16 18 mph 1007.9mb 67f 68f
3:00am 1.3ft 3s 13 18 mph 1008.3mb 66f 68f
2:00am 1ft 3s 11 13 mph 1008.6mb 66f 68f
1:00am 0.7ft 2s 13 16 mph 1009.1mb 66f 68f
12:00am 0.3ft 2s 11 13 mph 1009.2mb 66f 68f
Sat 07/22 11:00pm 0.3ft 2s 4 7 mph 1009.8mb 66f 68f
10:00pm 0.3ft 10s 9 9 mph 1009.6mb 66f 67f
9:00pm 0.3ft 10s 7 9 mph 1009.9mb 66f 67f
8:00pm 0.3ft 2s 7 7 mph 1009.5mb 67f 67f
7:00pm 0.3ft 3s 7 7 mph 1009.7mb 67f 66f
6:00pm 0.3ft 3s 4 4 mph 1009.3mb 67f 67f
5:00pm 0.3ft 3s 2 4 mph 1009.4mb 67f 67f
4:00pm 0.3ft 2s 2 2 mph 1009.4mb 67f 67f
3:00pm 0.3ft 2s 7 7 mph 1009.9mb 67f 68f
2:00pm 0.3ft 2s 4 7 mph 1010.3mb 67f 68f
1:00pm 0.3ft 15s 7 9 mph 1010.2mb 67f 67f
12:00pm 0.3ft 15s 9 11 mph 1011.1mb 67f 68f
11:00am 0.3ft 15s 9 9 mph 1011.6mb 67f 68f
10:00am 0.3ft 14s 7 7 mph 1011.7mb 67f 68f
9:00am 0.3ft 3s 2 2 mph 1011.7mb 67f 67f
8:00am 0.3ft 3s 4 4 mph 1011.6mb 67f 67f
7:00am 0.7ft 2s 4 7 mph 1011.6mb 66f 67f
6:00am 0.7ft 2s 4 4 mph 1011.7mb 66f 68f
5:00am 0.7ft 2s 4 7 mph 1011.7mb 66f 67f
4:00am 0.7ft 2s 4 4 mph 1012.1mb 66f 66f
3:00am 1ft 2s 11 13 mph 1012.2mb 66f 67f
2:00am 1ft 3s 9 9 mph 1012.1mb 66f 67f
1:00am 1ft 3s 9 9 mph 1012.1mb 66f 67f
12:00am 1.3ft 2s 9 11 mph 1012.8mb 66f 67f
Fri 07/21 11:00pm 1.3ft 3s 13 16 mph 1012.8mb 66f 67f
10:00pm 1.3ft 3s 11 13 mph 1012.9mb 66f 67f
9:00pm 1.3ft 3s 7 9 mph 1012.6mb 66f 67f
8:00pm 1.3ft 3s 11 13 mph 1012.6mb 67f 69f
7:00pm 1.3ft 3s 9 11 mph 1012.8mb 67f 69f
6:00pm 1ft 4s 13 13 mph 1013.1mb 68f 71f
5:00pm 1ft 4s 9 9 mph 1013.4mb 68f 71f
4:00pm 1ft 4s 7 7 mph 1013.4mb 69f 71f
3:00pm 1ft 4s 4 4 mph 1013.4mb 69f 70f
2:00pm 1ft 4s 4 7 mph 1013.8mb 68f 69f
1:00pm 1ft 4s 2 2 mph 1013.9mb 67f 67f
12:00pm 1.3ft 4s 9 11 mph 1013.9mb 66f 67f
11:00am 1.3ft 3s 7 7 mph 1013.7mb 66f 67f
10:00am 1.6ft 4s 9 11 mph 1013.7mb 65f 66f
9:00am 1.6ft 3s 11 13 mph 1013.9mb 65f 66f
8:00am 1.6ft 4s 13 16 mph 1014.1mb 65f 65f
7:00am 1.6ft 4s 13 16 mph 1014mb 65f 65f
6:00am 1.6ft 3s 11 13 mph 1013.3mb 65f 66f
5:00am 1.3ft 3s 13 16 mph 1012.8mb 65f 67f
4:00am 1.3ft 3s 16 18 mph 1012.3mb 65f 67f
3:00am 1.3ft 3s 11 13 mph 1012mb 65f 67f
2:00am 1ft 3s 13 18 mph 1012.1mb 65f 67f
1:00am 0.7ft 2s 13 13 mph 1012.1mb 65f 67f
12:00am 0.7ft 2s 9 9 mph 1012.2mb 65f 66f
Thu 07/20 11:00pm 0.3ft 2s 7 9 mph 1012.2mb 65f 66f
10:00pm 0.3ft 2s 7 9 mph 1012.2mb 65f 66f
9:00pm 0.3ft 3s 9 9 mph 1012.3mb 65f 66f
8:00pm 0.3ft 3s 9 16 mph 1012mb 66f 68f
7:00pm 0.3ft 3s 4 4 mph 1012.1mb 66f 68f
6:00pm 0.7ft 3s 4 4 mph 1011.9mb 67f 68f
5:00pm 0.7ft 3s 4 4 mph 1011.9mb 67f 67f
4:00pm 0.7ft 2s 4 4 mph 1012.4mb 66f 67f
3:00pm 1ft 3s 7 7 mph 1012.7mb 66f 67f
2:00pm 1ft 3s 11 13 mph 1012.7mb 65f 66f
1:00pm 1.3ft 3s 9 11 mph 1013.2mb 65f 66f
12:00pm 1ft 2s 9 13 mph 1013.5mb 65f 65f
11:00am 1ft 2s 13 16 mph 1013.7mb 65f 64f
10:00am 0.7ft 2s 11 13 mph 1014.4mb 65f 64f
9:00am 0.7ft 2s 11 13 mph 1015mb 64f 63f
8:00am 0.7ft 3s 7 9 mph 1014.9mb 64f 65f
7:00am 1ft 3s 4 9 mph 1014.4mb 64f 65f
6:00am 1.3ft 3s 9 11 mph 1014.7mb 64f 65f
5:00am 1.3ft 3s 16 18 mph 1014.9mb 64f 65f
4:00am 1.3ft 3s 11 13 mph 1014.5mb 64f 65f
3:00am 1.3ft 3s 9 11 mph 1014.9mb 65f 65f
2:00am 1.3ft 3s 9 11 mph 1014.9mb 65f 65f
1:00am 1.3ft 3s 11 13 mph 1015.4mb 65f 65f
12:00am 1.3ft 3s 13 13 mph 1015.9mb 65f 65f
Wed 07/19 11:00pm 1.3ft 2s 11 11 mph 1016mb 65f 65f
10:00pm 1ft 2s 11 13 mph 1016.2mb 65f 66f
9:00pm 1ft 2s 9 11 mph 1016.2mb 66f 66f
8:00pm 1ft 2s 9 11 mph 1016.2mb 66f 67f
7:00pm 1ft 3s 9 11 mph 1016.3mb 66f 69f
6:00pm 1ft 3s 9 11 mph 1016.4mb 66f 69f
5:00pm 1ft 3s 9 11 mph 1016.7mb 67f 68f
4:00pm 1ft 3s 9 11 mph 1016.6mb 68f 69f